sensor_id;sensor_type;location;lat;lon;timestamp;P1;durP1;ratioP1;P2;durP2;ratioP2
64037;SDS011;54641;50.168;8.492;2023-12-07T00:02:09;28.70;;;12.50;;
64037;SDS011;54641;50.168;8.492;2023-12-07T00:04:40;26.80;;;12.40;;
64037;SDS011;54641;50.168;8.492;2023-12-07T00:07:10;17.40;;;8.90;;
64037;SDS011;54641;50.168;8.492;2023-12-07T00:09:40;17.70;;;8.30;;
64037;SDS011;54641;50.168;8.492;2023-12-07T00:12:10;16.50;;;7.90;;
64037;SDS011;54641;50.168;8.492;2023-12-07T00:14:41;15.80;;;8.80;;
64037;SDS011;54641;50.168;8.492;2023-12-07T00:17:11;17.00;;;9.00;;
64037;SDS011;54641;50.168;8.492;2023-12-07T00:19:42;19.80;;;9.80;;
64037;SDS011;54641;50.168;8.492;2023-12-07T00:22:12;18.40;;;9.70;;
64037;SDS011;54641;50.168;8.492;2023-12-07T00:24:42;15.00;;;7.70;;
64037;SDS011;54641;50.168;8.492;2023-12-07T00:27:13;15.70;;;7.80;;
64037;SDS011;54641;50.168;8.492;2023-12-07T00:29:43;14.60;;;7.80;;
64037;SDS011;54641;50.168;8.492;2023-12-07T00:32:14;13.90;;;7.90;;
64037;SDS011;54641;50.168;8.492;2023-12-07T00:34:45;16.60;;;9.00;;
64037;SDS011;54641;50.168;8.492;2023-12-07T00:37:16;20.70;;;9.80;;
64037;SDS011;54641;50.168;8.492;2023-12-07T00:39:47;17.90;;;9.20;;
64037;SDS011;54641;50.168;8.492;2023-12-07T00:42:17;14.00;;;7.70;;
64037;SDS011;54641;50.168;8.492;2023-12-07T00:44:47;13.70;;;7.90;;
64037;SDS011;54641;50.168;8.492;2023-12-07T00:47:18;14.00;;;7.40;;
64037;SDS011;54641;50.168;8.492;2023-12-07T00:49:48;15.10;;;7.10;;
64037;SDS011;54641;50.168;8.492;2023-12-07T00:52:19;17.90;;;8.30;;
64037;SDS011;54641;50.168;8.492;2023-12-07T00:54:50;22.40;;;10.20;;
64037;SDS011;54641;50.168;8.492;2023-12-07T00:57:20;19.80;;;9.30;;
64037;SDS011;54641;50.168;8.492;2023-12-07T00:59:51;16.60;;;8.20;;
64037;SDS011;54641;50.168;8.492;2023-12-07T01:02:21;15.00;;;7.70;;
64037;SDS011;54641;50.168;8.492;2023-12-07T01:04:52;13.20;;;7.70;;
64037;SDS011;54641;50.168;8.492;2023-12-07T01:07:22;14.10;;;8.00;;
64037;SDS011;54641;50.168;8.492;2023-12-07T01:09:53;19.30;;;9.40;;
64037;SDS011;54641;50.168;8.492;2023-12-07T01:12:23;22.70;;;10.60;;
64037;SDS011;54641;50.168;8.492;2023-12-07T01:14:53;23.00;;;10.00;;
64037;SDS011;54641;50.168;8.492;2023-12-07T01:17:27;15.70;;;8.40;;
64037;SDS011;54641;50.168;8.492;2023-12-07T01:19:57;13.80;;;7.50;;
64037;SDS011;54641;50.168;8.492;2023-12-07T01:22:27;14.50;;;7.20;;
64037;SDS011;54641;50.168;8.492;2023-12-07T01:24:57;13.00;;;7.10;;
64037;SDS011;54641;50.168;8.492;2023-12-07T01:27:28;14.20;;;6.90;;
64037;SDS011;54641;50.168;8.492;2023-12-07T01:29:58;18.30;;;9.40;;
64037;SDS011;54641;50.168;8.492;2023-12-07T01:32:29;25.30;;;9.70;;
64037;SDS011;54641;50.168;8.492;2023-12-07T01:35:01;21.40;;;9.30;;
64037;SDS011;54641;50.168;8.492;2023-12-07T01:37:32;14.40;;;7.00;;
64037;SDS011;54641;50.168;8.492;2023-12-07T01:40:03;13.50;;;5.40;;
64037;SDS011;54641;50.168;8.492;2023-12-07T01:42:38;11.70;;;6.90;;
64037;SDS011;54641;50.168;8.492;2023-12-07T01:45:08;9.80;;;5.90;;
64037;SDS011;54641;50.168;8.492;2023-12-07T01:47:39;13.10;;;7.00;;
64037;SDS011;54641;50.168;8.492;2023-12-07T01:50:10;18.90;;;8.10;;
64037;SDS011;54641;50.168;8.492;2023-12-07T01:52:43;23.50;;;9.00;;
64037;SDS011;54641;50.168;8.492;2023-12-07T01:55:14;16.40;;;8.30;;
64037;SDS011;54641;50.168;8.492;2023-12-07T01:57:45;12.70;;;6.30;;
64037;SDS011;54641;50.168;8.492;2023-12-07T02:00:17;13.60;;;6.20;;
64037;SDS011;54641;50.168;8.492;2023-12-07T02:02:47;14.20;;;6.50;;
64037;SDS011;54641;50.168;8.492;2023-12-07T02:05:18;11.40;;;5.50;;
64037;SDS011;54641;50.168;8.492;2023-12-07T02:07:49;12.40;;;5.90;;
64037;SDS011;54641;50.168;8.492;2023-12-07T02:10:19;14.00;;;6.90;;
64037;SDS011;54641;50.168;8.492;2023-12-07T02:12:49;14.70;;;6.80;;
64037;SDS011;54641;50.168;8.492;2023-12-07T02:15:20;11.70;;;6.00;;
64037;SDS011;54641;50.168;8.492;2023-12-07T02:17:51;8.00;;;4.60;;
64037;SDS011;54641;50.168;8.492;2023-12-07T02:20:42;9.10;;;5.20;;
64037;SDS011;54641;50.168;8.492;2023-12-07T02:23:15;8.80;;;4.90;;
64037;SDS011;54641;50.168;8.492;2023-12-07T02:26:07;12.00;;;5.30;;
64037;SDS011;54641;50.168;8.492;2023-12-07T02:28:38;15.00;;;6.70;;
64037;SDS011;54641;50.168;8.492;2023-12-07T02:31:09;12.40;;;6.10;;
64037;SDS011;54641;50.168;8.492;2023-12-07T02:33:39;14.60;;;6.40;;
64037;SDS011;54641;50.168;8.492;2023-12-07T02:36:10;15.30;;;5.60;;
64037;SDS011;54641;50.168;8.492;2023-12-07T02:38:41;9.40;;;5.20;;
64037;SDS011;54641;50.168;8.492;2023-12-07T02:41:13;8.10;;;4.40;;
64037;SDS011;54641;50.168;8.492;2023-12-07T02:43:44;8.90;;;4.50;;
64037;SDS011;54641;50.168;8.492;2023-12-07T02:46:14;9.80;;;4.00;;
64037;SDS011;54641;50.168;8.492;2023-12-07T02:48:45;11.50;;;5.80;;
64037;SDS011;54641;50.168;8.492;2023-12-07T02:51:16;18.60;;;7.50;;
64037;SDS011;54641;50.168;8.492;2023-12-07T02:53:46;17.90;;;7.70;;
64037;SDS011;54641;50.168;8.492;2023-12-07T02:56:16;17.00;;;8.30;;
64037;SDS011;54641;50.168;8.492;2023-12-07T02:58:47;11.90;;;6.50;;
64037;SDS011;54641;50.168;8.492;2023-12-07T03:01:18;12.20;;;5.70;;
64037;SDS011;54641;50.168;8.492;2023-12-07T03:03:48;11.80;;;5.90;;
64037;SDS011;54641;50.168;8.492;2023-12-07T03:06:19;11.20;;;5.70;;
64037;SDS011;54641;50.168;8.492;2023-12-07T03:08:49;12.20;;;6.50;;
64037;SDS011;54641;50.168;8.492;2023-12-07T03:11:19;18.70;;;6.90;;
64037;SDS011;54641;50.168;8.492;2023-12-07T03:13:50;16.80;;;7.10;;
64037;SDS011;54641;50.168;8.492;2023-12-07T03:16:21;8.80;;;5.10;;
64037;SDS011;54641;50.168;8.492;2023-12-07T03:18:51;9.20;;;4.80;;
64037;SDS011;54641;50.168;8.492;2023-12-07T03:21:22;12.70;;;5.90;;
64037;SDS011;54641;50.168;8.492;2023-12-07T03:23:52;11.80;;;5.20;;
64037;SDS011;54641;50.168;8.492;2023-12-07T03:26:22;17.50;;;6.10;;
64037;SDS011;54641;50.168;8.492;2023-12-07T03:28:53;13.80;;;7.10;;
64037;SDS011;54641;50.168;8.492;2023-12-07T03:31:23;15.10;;;6.50;;
64037;SDS011;54641;50.168;8.492;2023-12-07T03:33:54;12.40;;;6.00;;
64037;SDS011;54641;50.168;8.492;2023-12-07T03:36:24;10.50;;;5.10;;
64037;SDS011;54641;50.168;8.492;2023-12-07T03:39:01;10.00;;;4.80;;
64037;SDS011;54641;50.168;8.492;2023-12-07T03:41:32;8.30;;;4.70;;
64037;SDS011;54641;50.168;8.492;2023-12-07T03:44:03;7.00;;;4.10;;
64037;SDS011;54641;50.168;8.492;2023-12-07T03:46:33;8.70;;;4.60;;
64037;SDS011;54641;50.168;8.492;2023-12-07T03:49:04;12.20;;;5.70;;
64037;SDS011;54641;50.168;8.492;2023-12-07T03:51:35;16.60;;;7.30;;
64037;SDS011;54641;50.168;8.492;2023-12-07T03:54:07;32.80;;;12.70;;
64037;SDS011;54641;50.168;8.492;2023-12-07T03:56:39;39.70;;;13.70;;
64037;SDS011;54641;50.168;8.492;2023-12-07T03:59:10;12.40;;;6.30;;
64037;SDS011;54641;50.168;8.492;2023-12-07T04:01:41;13.50;;;4.80;;
64037;SDS011;54641;50.168;8.492;2023-12-07T04:04:12;12.30;;;5.40;;
64037;SDS011;54641;50.168;8.492;2023-12-07T04:06:44;9.40;;;4.90;;
64037;SDS011;54641;50.168;8.492;2023-12-07T04:09:17;7.40;;;3.90;;
64037;SDS011;54641;50.168;8.492;2023-12-07T04:11:50;14.50;;;6.00;;
64037;SDS011;54641;50.168;8.492;2023-12-07T04:14:21;14.80;;;6.90;;
64037;SDS011;54641;50.168;8.492;2023-12-07T04:16:53;13.70;;;6.40;;
64037;SDS011;54641;50.168;8.492;2023-12-07T04:19:25;8.30;;;4.70;;
64037;SDS011;54641;50.168;8.492;2023-12-07T04:21:58;10.60;;;5.30;;
64037;SDS011;54641;50.168;8.492;2023-12-07T04:24:29;8.90;;;5.20;;
64037;SDS011;54641;50.168;8.492;2023-12-07T04:27:00;7.40;;;4.40;;
64037;SDS011;54641;50.168;8.492;2023-12-07T04:29:32;10.30;;;5.30;;
64037;SDS011;54641;50.168;8.492;2023-12-07T04:32:04;18.30;;;7.10;;
64037;SDS011;54641;50.168;8.492;2023-12-07T04:34:36;14.70;;;6.50;;
64037;SDS011;54641;50.168;8.492;2023-12-07T04:37:08;10.90;;;5.10;;
64037;SDS011;54641;50.168;8.492;2023-12-07T04:39:40;9.90;;;5.80;;
64037;SDS011;54641;50.168;8.492;2023-12-07T04:42:10;13.50;;;6.80;;
64037;SDS011;54641;50.168;8.492;2023-12-07T04:44:42;12.80;;;7.20;;
64037;SDS011;54641;50.168;8.492;2023-12-07T04:47:14;14.30;;;7.30;;
64037;SDS011;54641;50.168;8.492;2023-12-07T04:49:47;18.20;;;9.50;;
64037;SDS011;54641;50.168;8.492;2023-12-07T04:58:50;15.10;;;7.10;;
64037;SDS011;54641;50.168;8.492;2023-12-07T05:01:20;13.20;;;7.00;;
64037;SDS011;54641;50.168;8.492;2023-12-07T05:03:51;15.20;;;7.00;;
64037;SDS011;54641;50.168;8.492;2023-12-07T05:06:21;11.90;;;6.80;;
64037;SDS011;54641;50.168;8.492;2023-12-07T05:08:52;15.60;;;8.00;;
64037;SDS011;54641;50.168;8.492;2023-12-07T05:11:22;18.70;;;9.70;;
64037;SDS011;54641;50.168;8.492;2023-12-07T05:13:53;23.30;;;10.10;;
64037;SDS011;54641;50.168;8.492;2023-12-07T05:16:23;14.60;;;7.60;;
64037;SDS011;54641;50.168;8.492;2023-12-07T05:18:53;14.80;;;7.70;;
64037;SDS011;54641;50.168;8.492;2023-12-07T05:21:24;17.30;;;7.10;;
64037;SDS011;54641;50.168;8.492;2023-12-07T05:23:54;15.20;;;7.30;;
64037;SDS011;54641;50.168;8.492;2023-12-07T05:26:25;23.30;;;9.40;;
64037;SDS011;54641;50.168;8.492;2023-12-07T05:28:57;22.20;;;9.70;;
64037;SDS011;54641;50.168;8.492;2023-12-07T05:31:27;21.00;;;10.60;;
64037;SDS011;54641;50.168;8.492;2023-12-07T05:33:58;15.60;;;7.50;;
64037;SDS011;54641;50.168;8.492;2023-12-07T05:36:28;12.50;;;6.10;;
64037;SDS011;54641;50.168;8.492;2023-12-07T05:38:59;13.70;;;6.50;;
64037;SDS011;54641;50.168;8.492;2023-12-07T05:41:29;11.30;;;5.90;;
64037;SDS011;54641;50.168;8.492;2023-12-07T05:43:59;15.00;;;6.90;;
64037;SDS011;54641;50.168;8.492;2023-12-07T05:46:31;17.20;;;8.00;;
64037;SDS011;54641;50.168;8.492;2023-12-07T05:49:02;23.80;;;9.30;;
64037;SDS011;54641;50.168;8.492;2023-12-07T05:51:32;21.00;;;10.60;;
64037;SDS011;54641;50.168;8.492;2023-12-07T05:54:03;17.00;;;7.60;;
64037;SDS011;54641;50.168;8.492;2023-12-07T05:56:33;11.60;;;6.80;;
64037;SDS011;54641;50.168;8.492;2023-12-07T05:59:04;20.30;;;8.10;;
64037;SDS011;54641;50.168;8.492;2023-12-07T06:01:34;17.00;;;7.40;;
64037;SDS011;54641;50.168;8.492;2023-12-07T06:04:05;25.30;;;10.30;;
64037;SDS011;54641;50.168;8.492;2023-12-07T06:06:37;27.10;;;9.80;;
64037;SDS011;54641;50.168;8.492;2023-12-07T06:09:07;27.20;;;10.40;;
64037;SDS011;54641;50.168;8.492;2023-12-07T06:11:39;15.90;;;7.80;;
64037;SDS011;54641;50.168;8.492;2023-12-07T06:14:09;12.90;;;7.00;;
64037;SDS011;54641;50.168;8.492;2023-12-07T06:16:40;13.40;;;6.70;;
64037;SDS011;54641;50.168;8.492;2023-12-07T06:19:11;15.20;;;6.90;;
64037;SDS011;54641;50.168;8.492;2023-12-07T06:21:41;22.30;;;9.20;;
64037;SDS011;54641;50.168;8.492;2023-12-07T06:24:11;26.80;;;10.80;;
64037;SDS011;54641;50.168;8.492;2023-12-07T06:26:42;24.60;;;10.50;;
64037;SDS011;54641;50.168;8.492;2023-12-07T06:29:13;16.40;;;8.00;;
64037;SDS011;54641;50.168;8.492;2023-12-07T06:31:44;15.80;;;8.30;;
64037;SDS011;54641;50.168;8.492;2023-12-07T06:34:14;14.40;;;6.80;;
64037;SDS011;54641;50.168;8.492;2023-12-07T06:36:44;13.10;;;6.60;;
64037;SDS011;54641;50.168;8.492;2023-12-07T06:39:15;18.20;;;9.50;;
64037;SDS011;54641;50.168;8.492;2023-12-07T06:41:46;29.50;;;11.00;;
64037;SDS011;54641;50.168;8.492;2023-12-07T06:44:16;26.40;;;11.80;;
64037;SDS011;54641;50.168;8.492;2023-12-07T06:46:46;31.20;;;12.70;;
64037;SDS011;54641;50.168;8.492;2023-12-07T06:49:17;16.00;;;8.50;;
64037;SDS011;54641;50.168;8.492;2023-12-07T06:51:48;18.00;;;7.70;;
64037;SDS011;54641;50.168;8.492;2023-12-07T06:54:18;13.40;;;7.00;;
64037;SDS011;54641;50.168;8.492;2023-12-07T06:56:49;14.60;;;7.60;;
64037;SDS011;54641;50.168;8.492;2023-12-07T06:59:19;18.00;;;8.60;;
64037;SDS011;54641;50.168;8.492;2023-12-07T07:01:51;20.10;;;9.50;;
64037;SDS011;54641;50.168;8.492;2023-12-07T07:04:21;28.60;;;11.50;;
64037;SDS011;54641;50.168;8.492;2023-12-07T07:06:52;30.60;;;11.10;;
64037;SDS011;54641;50.168;8.492;2023-12-07T07:09:23;19.90;;;9.50;;
64037;SDS011;54641;50.168;8.492;2023-12-07T07:11:53;17.50;;;8.70;;
64037;SDS011;54641;50.168;8.492;2023-12-07T07:14:24;17.50;;;8.10;;
64037;SDS011;54641;50.168;8.492;2023-12-07T07:16:54;18.40;;;8.70;;
64037;SDS011;54641;50.168;8.492;2023-12-07T07:19:25;21.00;;;9.20;;
64037;SDS011;54641;50.168;8.492;2023-12-07T07:21:55;29.60;;;11.60;;
64037;SDS011;54641;50.168;8.492;2023-12-07T07:24:26;27.90;;;11.90;;
64037;SDS011;54641;50.168;8.492;2023-12-07T07:26:56;19.70;;;9.40;;
64037;SDS011;54641;50.168;8.492;2023-12-07T07:29:27;19.40;;;10.00;;
64037;SDS011;54641;50.168;8.492;2023-12-07T07:31:57;17.70;;;8.20;;
64037;SDS011;54641;50.168;8.492;2023-12-07T07:34:28;16.80;;;8.50;;
64037;SDS011;54641;50.168;8.492;2023-12-07T07:36:59;23.30;;;10.70;;
64037;SDS011;54641;50.168;8.492;2023-12-07T07:39:29;30.40;;;12.10;;
64037;SDS011;54641;50.168;8.492;2023-12-07T07:42:00;26.30;;;11.90;;
64037;SDS011;54641;50.168;8.492;2023-12-07T07:44:30;16.50;;;8.60;;
64037;SDS011;54641;50.168;8.492;2023-12-07T07:47:00;17.80;;;8.50;;
64037;SDS011;54641;50.168;8.492;2023-12-07T07:49:30;19.10;;;8.30;;
64037;SDS011;54641;50.168;8.492;2023-12-07T07:52:01;20.20;;;8.50;;
64037;SDS011;54641;50.168;8.492;2023-12-07T07:54:32;20.10;;;9.20;;
64037;SDS011;54641;50.168;8.492;2023-12-07T07:57:03;27.80;;;11.80;;
64037;SDS011;54641;50.168;8.492;2023-12-07T07:59:34;22.70;;;10.30;;
64037;SDS011;54641;50.168;8.492;2023-12-07T08:02:05;22.50;;;11.50;;
64037;SDS011;54641;50.168;8.492;2023-12-07T08:04:35;19.60;;;11.10;;
64037;SDS011;54641;50.168;8.492;2023-12-07T08:07:06;19.10;;;10.80;;
64037;SDS011;54641;50.168;8.492;2023-12-07T08:12:08;22.80;;;10.00;;
64037;SDS011;54641;50.168;8.492;2023-12-07T08:14:38;30.20;;;15.00;;
64037;SDS011;54641;50.168;8.492;2023-12-07T08:17:11;27.10;;;12.90;;
64037;SDS011;54641;50.168;8.492;2023-12-07T08:19:42;26.90;;;13.00;;
64037;SDS011;54641;50.168;8.492;2023-12-07T08:22:13;23.60;;;11.80;;
64037;SDS011;54641;50.168;8.492;2023-12-07T08:24:43;24.80;;;11.90;;
64037;SDS011;54641;50.168;8.492;2023-12-07T08:27:23;23.30;;;12.00;;
64037;SDS011;54641;50.168;8.492;2023-12-07T08:29:54;25.40;;;13.20;;
64037;SDS011;54641;50.168;8.492;2023-12-07T08:32:25;31.30;;;13.80;;
64037;SDS011;54641;50.168;8.492;2023-12-07T08:34:55;28.60;;;14.40;;
64037;SDS011;54641;50.168;8.492;2023-12-07T08:37:26;22.20;;;11.60;;
64037;SDS011;54641;50.168;8.492;2023-12-07T08:39:57;19.70;;;10.80;;
64037;SDS011;54641;50.168;8.492;2023-12-07T08:42:27;19.10;;;10.00;;
64037;SDS011;54641;50.168;8.492;2023-12-07T08:44:59;18.20;;;10.00;;
64037;SDS011;54641;50.168;8.492;2023-12-07T08:47:29;19.90;;;11.10;;
64037;SDS011;54641;50.168;8.492;2023-12-07T08:50:00;20.50;;;10.80;;
64037;SDS011;54641;50.168;8.492;2023-12-07T08:52:30;20.60;;;11.60;;
64037;SDS011;54641;50.168;8.492;2023-12-07T08:57:44;22.40;;;10.90;;
64037;SDS011;54641;50.168;8.492;2023-12-07T09:00:15;22.70;;;11.70;;
64037;SDS011;54641;50.168;8.492;2023-12-07T09:02:51;21.00;;;11.80;;
64037;SDS011;54641;50.168;8.492;2023-12-07T09:05:22;26.00;;;13.30;;
64037;SDS011;54641;50.168;8.492;2023-12-07T09:07:53;27.40;;;12.70;;
64037;SDS011;54641;50.168;8.492;2023-12-07T09:10:24;31.10;;;13.20;;
64037;SDS011;54641;50.168;8.492;2023-12-07T09:12:54;23.80;;;13.00;;
64037;SDS011;54641;50.168;8.492;2023-12-07T09:15:24;24.20;;;12.80;;
64037;SDS011;54641;50.168;8.492;2023-12-07T09:17:55;26.60;;;13.40;;
64037;SDS011;54641;50.168;8.492;2023-12-07T09:20:25;28.20;;;14.20;;
64037;SDS011;54641;50.168;8.492;2023-12-07T09:22:56;29.50;;;12.30;;
64037;SDS011;54641;50.168;8.492;2023-12-07T09:25:26;28.80;;;12.80;;
64037;SDS011;54641;50.168;8.492;2023-12-07T09:27:58;28.60;;;13.20;;
64037;SDS011;54641;50.168;8.492;2023-12-07T09:30:28;26.90;;;12.80;;
64037;SDS011;54641;50.168;8.492;2023-12-07T09:33:00;24.10;;;11.40;;
64037;SDS011;54641;50.168;8.492;2023-12-07T09:35:32;24.30;;;11.20;;
64037;SDS011;54641;50.168;8.492;2023-12-07T09:38:03;23.80;;;11.80;;
64037;SDS011;54641;50.168;8.492;2023-12-07T09:40:34;25.80;;;13.50;;
64037;SDS011;54641;50.168;8.492;2023-12-07T09:43:05;26.00;;;11.10;;
64037;SDS011;54641;50.168;8.492;2023-12-07T09:45:35;25.30;;;11.50;;
64037;SDS011;54641;50.168;8.492;2023-12-07T09:48:06;23.20;;;11.10;;
64037;SDS011;54641;50.168;8.492;2023-12-07T09:50:38;21.00;;;10.60;;
64037;SDS011;54641;50.168;8.492;2023-12-07T09:53:09;18.30;;;9.40;;
64037;SDS011;54641;50.168;8.492;2023-12-07T09:55:39;21.40;;;10.80;;
64037;SDS011;54641;50.168;8.492;2023-12-07T09:58:11;20.10;;;10.80;;
64037;SDS011;54641;50.168;8.492;2023-12-07T10:00:43;24.70;;;11.30;;
64037;SDS011;54641;50.168;8.492;2023-12-07T10:03:21;23.70;;;11.60;;
64037;SDS011;54641;50.168;8.492;2023-12-07T10:05:55;27.90;;;13.30;;
64037;SDS011;54641;50.168;8.492;2023-12-07T10:08:28;18.50;;;11.50;;
64037;SDS011;54641;50.168;8.492;2023-12-07T10:11:06;21.50;;;11.90;;
64037;SDS011;54641;50.168;8.492;2023-12-07T10:13:38;16.90;;;10.30;;
64037;SDS011;54641;50.168;8.492;2023-12-07T10:16:10;16.10;;;11.00;;
64037;SDS011;54641;50.168;8.492;2023-12-07T10:21:12;13.90;;;9.10;;
64037;SDS011;54641;50.168;8.492;2023-12-07T10:23:44;15.20;;;9.80;;
64037;SDS011;54641;50.168;8.492;2023-12-07T10:28:49;15.80;;;10.20;;
64037;SDS011;54641;50.168;8.492;2023-12-07T10:31:22;15.00;;;10.00;;
64037;SDS011;54641;50.168;8.492;2023-12-07T10:33:53;14.00;;;9.90;;
64037;SDS011;54641;50.168;8.492;2023-12-07T10:36:23;17.90;;;10.80;;
64037;SDS011;54641;50.168;8.492;2023-12-07T10:38:54;14.20;;;9.50;;
64037;SDS011;54641;50.168;8.492;2023-12-07T10:41:24;15.50;;;9.30;;
64037;SDS011;54641;50.168;8.492;2023-12-07T10:43:59;14.00;;;9.50;;
64037;SDS011;54641;50.168;8.492;2023-12-07T10:46:30;14.70;;;9.70;;
64037;SDS011;54641;50.168;8.492;2023-12-07T10:51:41;17.00;;;10.50;;
64037;SDS011;54641;50.168;8.492;2023-12-07T10:54:15;15.70;;;9.40;;
64037;SDS011;54641;50.168;8.492;2023-12-07T10:56:47;14.60;;;8.80;;
64037;SDS011;54641;50.168;8.492;2023-12-07T10:59:18;14.90;;;9.40;;
64037;SDS011;54641;50.168;8.492;2023-12-07T11:02:00;16.00;;;9.90;;
64037;SDS011;54641;50.168;8.492;2023-12-07T11:04:31;24.00;;;13.10;;
64037;SDS011;54641;50.168;8.492;2023-12-07T11:07:03;21.00;;;13.60;;
64037;SDS011;54641;50.168;8.492;2023-12-07T11:09:38;23.20;;;12.60;;
64037;SDS011;54641;50.168;8.492;2023-12-07T11:12:11;28.90;;;14.50;;
64037;SDS011;54641;50.168;8.492;2023-12-07T11:14:46;18.90;;;11.90;;
64037;SDS011;54641;50.168;8.492;2023-12-07T11:17:16;25.70;;;14.20;;
64037;SDS011;54641;50.168;8.492;2023-12-07T11:19:47;27.50;;;14.50;;
64037;SDS011;54641;50.168;8.492;2023-12-07T11:22:18;26.40;;;15.50;;
64037;SDS011;54641;50.168;8.492;2023-12-07T11:24:56;26.70;;;15.80;;
64037;SDS011;54641;50.168;8.492;2023-12-07T11:27:32;29.20;;;16.70;;
64037;SDS011;54641;50.168;8.492;2023-12-07T11:30:03;28.80;;;15.80;;
64037;SDS011;54641;50.168;8.492;2023-12-07T11:35:05;32.40;;;16.90;;
64037;SDS011;54641;50.168;8.492;2023-12-07T11:40:35;27.70;;;12.90;;
64037;SDS011;54641;50.168;8.492;2023-12-07T11:43:07;33.10;;;16.70;;
64037;SDS011;54641;50.168;8.492;2023-12-07T11:45:41;36.00;;;17.20;;
64037;SDS011;54641;50.168;8.492;2023-12-07T11:48:16;36.40;;;17.00;;
64037;SDS011;54641;50.168;8.492;2023-12-07T11:50:54;37.60;;;19.00;;
64037;SDS011;54641;50.168;8.492;2023-12-07T11:53:26;33.60;;;16.50;;
64037;SDS011;54641;50.168;8.492;2023-12-07T11:55:58;35.90;;;18.00;;
64037;SDS011;54641;50.168;8.492;2023-12-07T11:58:29;37.50;;;16.10;;
64037;SDS011;54641;50.168;8.492;2023-12-07T12:01:05;31.20;;;13.70;;
64037;SDS011;54641;50.168;8.492;2023-12-07T12:03:37;38.50;;;17.00;;
64037;SDS011;54641;50.168;8.492;2023-12-07T12:06:07;39.60;;;18.40;;
64037;SDS011;54641;50.168;8.492;2023-12-07T12:08:40;40.50;;;17.80;;
64037;SDS011;54641;50.168;8.492;2023-12-07T12:11:11;47.30;;;20.40;;
64037;SDS011;54641;50.168;8.492;2023-12-07T12:13:41;45.40;;;17.70;;
64037;SDS011;54641;50.168;8.492;2023-12-07T12:16:14;38.00;;;14.90;;
64037;SDS011;54641;50.168;8.492;2023-12-07T12:18:44;43.30;;;18.00;;
64037;SDS011;54641;50.168;8.492;2023-12-07T12:21:15;45.10;;;19.10;;
64037;SDS011;54641;50.168;8.492;2023-12-07T12:23:46;37.60;;;17.60;;
64037;SDS011;54641;50.168;8.492;2023-12-07T12:26:18;38.00;;;17.10;;
64037;SDS011;54641;50.168;8.492;2023-12-07T12:28:52;31.60;;;13.80;;
64037;SDS011;54641;50.168;8.492;2023-12-07T12:31:22;28.60;;;14.00;;
64037;SDS011;54641;50.168;8.492;2023-12-07T12:33:54;29.70;;;13.70;;
64037;SDS011;54641;50.168;8.492;2023-12-07T12:36:29;29.10;;;12.70;;
64037;SDS011;54641;50.168;8.492;2023-12-07T12:39:00;32.80;;;15.00;;
64037;SDS011;54641;50.168;8.492;2023-12-07T12:41:35;36.00;;;14.30;;
64037;SDS011;54641;50.168;8.492;2023-12-07T12:44:07;30.10;;;14.00;;
64037;SDS011;54641;50.168;8.492;2023-12-07T12:46:51;35.50;;;15.60;;
64037;SDS011;54641;50.168;8.492;2023-12-07T12:49:21;35.40;;;16.90;;
64037;SDS011;54641;50.168;8.492;2023-12-07T12:51:52;33.40;;;14.90;;
64037;SDS011;54641;50.168;8.492;2023-12-07T12:54:24;35.00;;;16.60;;
64037;SDS011;54641;50.168;8.492;2023-12-07T12:57:01;40.90;;;16.80;;
64037;SDS011;54641;50.168;8.492;2023-12-07T12:59:36;40.30;;;16.40;;
64037;SDS011;54641;50.168;8.492;2023-12-07T13:02:06;37.10;;;17.40;;
64037;SDS011;54641;50.168;8.492;2023-12-07T13:04:37;32.80;;;15.70;;
64037;SDS011;54641;50.168;8.492;2023-12-07T13:07:09;34.60;;;15.00;;
64037;SDS011;54641;50.168;8.492;2023-12-07T13:09:40;40.20;;;17.90;;
64037;SDS011;54641;50.168;8.492;2023-12-07T13:12:11;40.70;;;17.90;;
64037;SDS011;54641;50.168;8.492;2023-12-07T13:14:41;40.30;;;16.70;;
64037;SDS011;54641;50.168;8.492;2023-12-07T13:17:17;45.20;;;17.80;;
64037;SDS011;54641;50.168;8.492;2023-12-07T13:19:47;40.70;;;15.80;;
64037;SDS011;54641;50.168;8.492;2023-12-07T13:22:17;37.00;;;17.30;;
64037;SDS011;54641;50.168;8.492;2023-12-07T13:24:48;46.00;;;19.40;;
64037;SDS011;54641;50.168;8.492;2023-12-07T13:27:18;41.30;;;16.60;;
64037;SDS011;54641;50.168;8.492;2023-12-07T13:29:52;45.30;;;19.70;;
64037;SDS011;54641;50.168;8.492;2023-12-07T13:32:22;35.50;;;16.10;;
64037;SDS011;54641;50.168;8.492;2023-12-07T13:34:53;45.40;;;17.20;;
64037;SDS011;54641;50.168;8.492;2023-12-07T13:37:24;41.50;;;17.30;;
64037;SDS011;54641;50.168;8.492;2023-12-07T13:39:54;44.70;;;17.30;;
64037;SDS011;54641;50.168;8.492;2023-12-07T13:42:25;43.30;;;16.90;;
64037;SDS011;54641;50.168;8.492;2023-12-07T13:44:56;39.20;;;16.10;;
64037;SDS011;54641;50.168;8.492;2023-12-07T13:47:28;39.00;;;15.50;;
64037;SDS011;54641;50.168;8.492;2023-12-07T13:49:59;40.90;;;16.10;;
64037;SDS011;54641;50.168;8.492;2023-12-07T13:52:31;47.60;;;15.20;;
64037;SDS011;54641;50.168;8.492;2023-12-07T13:55:01;42.70;;;16.60;;
64037;SDS011;54641;50.168;8.492;2023-12-07T13:57:32;36.90;;;15.50;;
64037;SDS011;54641;50.168;8.492;2023-12-07T14:00:03;36.60;;;14.60;;
64037;SDS011;54641;50.168;8.492;2023-12-07T14:02:34;36.60;;;14.90;;
64037;SDS011;54641;50.168;8.492;2023-12-07T14:05:05;32.80;;;13.00;;
64037;SDS011;54641;50.168;8.492;2023-12-07T14:07:35;37.80;;;15.00;;
64037;SDS011;54641;50.168;8.492;2023-12-07T14:10:06;41.90;;;16.00;;
64037;SDS011;54641;50.168;8.492;2023-12-07T14:12:37;36.80;;;13.80;;
64037;SDS011;54641;50.168;8.492;2023-12-07T14:15:09;33.90;;;13.70;;
64037;SDS011;54641;50.168;8.492;2023-12-07T14:17:39;30.90;;;14.30;;
64037;SDS011;54641;50.168;8.492;2023-12-07T14:20:20;30.00;;;13.10;;
64037;SDS011;54641;50.168;8.492;2023-12-07T14:23:11;29.50;;;13.50;;
64037;SDS011;54641;50.168;8.492;2023-12-07T14:25:43;28.00;;;12.40;;
64037;SDS011;54641;50.168;8.492;2023-12-07T14:28:15;31.30;;;12.90;;
64037;SDS011;54641;50.168;8.492;2023-12-07T14:30:46;35.80;;;15.30;;
64037;SDS011;54641;50.168;8.492;2023-12-07T14:33:16;29.40;;;12.70;;
64037;SDS011;54641;50.168;8.492;2023-12-07T14:35:47;30.10;;;13.30;;
64037;SDS011;54641;50.168;8.492;2023-12-07T14:38:18;29.40;;;13.40;;
64037;SDS011;54641;50.168;8.492;2023-12-07T14:40:48;35.20;;;15.30;;
64037;SDS011;54641;50.168;8.492;2023-12-07T14:43:19;34.40;;;15.10;;
64037;SDS011;54641;50.168;8.492;2023-12-07T14:45:50;37.70;;;15.80;;
64037;SDS011;54641;50.168;8.492;2023-12-07T14:48:21;37.40;;;13.70;;
64037;SDS011;54641;50.168;8.492;2023-12-07T14:50:52;41.80;;;15.60;;
64037;SDS011;54641;50.168;8.492;2023-12-07T14:53:22;42.70;;;15.70;;
64037;SDS011;54641;50.168;8.492;2023-12-07T14:55:53;29.80;;;12.70;;
64037;SDS011;54641;50.168;8.492;2023-12-07T14:58:25;36.40;;;15.50;;
64037;SDS011;54641;50.168;8.492;2023-12-07T15:00:55;33.90;;;14.40;;
64037;SDS011;54641;50.168;8.492;2023-12-07T15:03:26;38.60;;;16.70;;
64037;SDS011;54641;50.168;8.492;2023-12-07T15:05:56;31.30;;;14.80;;
64037;SDS011;54641;50.168;8.492;2023-12-07T15:08:26;32.00;;;14.20;;
64037;SDS011;54641;50.168;8.492;2023-12-07T15:10:57;31.80;;;13.00;;
64037;SDS011;54641;50.168;8.492;2023-12-07T15:13:27;37.80;;;15.30;;
64037;SDS011;54641;50.168;8.492;2023-12-07T15:16:02;32.80;;;14.90;;
64037;SDS011;54641;50.168;8.492;2023-12-07T15:19:27;35.40;;;16.60;;